Time,TemperatureF,DewpointF,PressureIn,WindDirection,WindDirectionDegrees,WindSpeedMPH,WindSpeedGustMPH,Humidity,HourlyPrecipIn,Conditions,Clouds,dailyrainin,SoftwareType,DateUTC
2013-06-01 00:03:00,74.0,-99.9,30.06,SSW,208,7.0,10.0,-999,-99.99,,,-99.99,,2013-06-01 04:03:00,
2013-06-01 00:13:00,74.0,-99.9,30.06,SSW,208,6.0,11.0,-999,-99.99,,,-99.99,,2013-06-01 04:13:00,
2013-06-01 00:23:00,74.0,-99.9,30.06,SSW,208,6.0,10.0,-999,-99.99,,,-99.99,,2013-06-01 04:23:00,
2013-06-01 00:33:00,74.0,-99.9,30.06,SW,215,6.0,10.0,-999,-99.99,,,-99.99,,2013-06-01 04:33:00,
2013-06-01 00:42:00,74.0,-99.9,30.06,SW,214,7.0,13.0,-999,-99.99,,,-99.99,,2013-06-01 04:42:00,
2013-06-01 00:53:00,74.0,-99.9,30.06,SSW,210,6.0,9.0,-999,-99.99,,,-99.99,,2013-06-01 04:53:00,
2013-06-01 01:02:00,74.0,-99.9,30.06,SW,217,7.0,11.0,-999,-99.99,,,-99.99,,2013-06-01 05:02:00,
2013-06-01 01:12:00,74.0,-99.9,30.06,SSW,211,7.0,10.0,-999,-99.99,,,-99.99,,2013-06-01 05:12:00,
2013-06-01 01:22:00,74.0,-99.9,30.06,SW,215,7.0,13.0,-999,-99.99,,,-99.99,,2013-06-01 05:22:00,
2013-06-01 01:32:00,74.0,-99.9,30.05,SSW,206,6.0,8.0,-999,-99.99,,,-99.99,,2013-06-01 05:32:00,
2013-06-01 01:43:00,74.0,-99.9,30.05,SSW,207,6.0,11.0,-999,-99.99,,,-99.99,,2013-06-01 05:43:00,
2013-06-01 01:52:00,74.0,-99.9,30.05,SSW,206,7.0,11.0,-999,-99.99,,,-99.99,,2013-06-01 05:52:00,
2013-06-01 02:01:00,74.0,-99.9,30.04,SSW,209,9.0,14.0,-999,-99.99,,,-99.99,,2013-06-01 06:01:00,
2013-06-01 02:12:00,74.0,-99.9,30.05,SSW,207,9.0,16.0,-999,-99.99,,,-99.99,,2013-06-01 06:12:00,
2013-06-01 02:22:00,74.0,-99.9,30.04,SW,214,6.0,11.0,-999,-99.99,,,-99.99,,2013-06-01 06:22:00,
2013-06-01 02:32:00,74.0,-99.9,30.04,SW,220,7.0,11.0,-999,-99.99,,,-99.99,,2013-06-01 06:32:00,
2013-06-01 02:42:00,74.0,-99.9,30.04,SW,214,8.0,13.0,-999,-99.99,,,-99.99,,2013-06-01 06:42:00,
2013-06-01 02:52:00,73.0,-99.9,30.04,SW,214,8.0,13.0,-999,-99.99,,,-99.99,,2013-06-01 06:52:00,
2013-06-01 03:01:00,73.0,-99.9,30.04,SW,216,8.0,13.0,-999,-99.99,,,-99.99,,2013-06-01 07:01:00,
2013-06-01 03:11:00,73.0,-99.9,30.04,SW,218,8.0,14.0,-999,-99.99,,,-99.99,,2013-06-01 07:11:00,
2013-06-01 03:22:00,73.0,-99.9,30.04,SSW,213,9.0,15.0,-999,-99.99,,,-99.99,,2013-06-01 07:22:00,
2013-06-01 03:32:00,73.0,-99.9,30.04,SW,223,7.0,12.0,-999,-99.99,,,-99.99,,2013-06-01 07:32:00,
2013-06-01 03:42:00,73.0,-99.9,30.04,SW,215,7.0,13.0,-999,-99.99,,,-99.99,,2013-06-01 07:42:00,
2013-06-01 03:52:00,73.0,-99.9,30.04,SW,221,8.0,13.0,-999,-99.99,,,-99.99,,2013-06-01 07:52:00,
2013-06-01 04:02:00,73.0,-99.9,30.04,SW,214,9.0,13.0,-999,-99.99,,,-99.99,,2013-06-01 08:02:00,
2013-06-01 04:11:00,73.0,-99.9,30.04,SW,216,8.0,13.0,-999,-99.99,,,-99.99,,2013-06-01 08:11:00,
2013-06-01 04:22:00,73.0,-99.9,30.04,SW,222,8.0,11.0,-999,-99.99,,,-99.99,,2013-06-01 08:22:00,
2013-06-01 04:32:00,73.0,-99.9,30.04,SW,220,8.0,13.0,-999,-99.99,,,-99.99,,2013-06-01 08:32:00,
2013-06-01 04:42:00,73.0,-99.9,30.04,SW,224,9.0,15.0,-999,-99.99,,,-99.99,,2013-06-01 08:42:00,
2013-06-01 04:52:00,73.0,-99.9,30.04,SW,221,9.0,14.0,-999,-99.99,,,-99.99,,2013-06-01 08:52:00,
2013-06-01 05:02:00,73.0,-99.9,30.04,SW,224,9.0,13.0,-999,-99.99,,,-99.99,,2013-06-01 09:02:00,
2013-06-01 05:12:00,73.0,-99.9,30.04,SW,219,8.0,12.0,-999,-99.99,,,-99.99,,2013-06-01 09:12:00,
2013-06-01 05:22:00,73.0,-99.9,30.04,SW,219,8.0,11.0,-999,-99.99,,,-99.99,,2013-06-01 09:22:00,
2013-06-01 05:33:00,73.0,-99.9,30.05,SW,223,7.0,11.0,-999,-99.99,,,-99.99,,2013-06-01 09:33:00,
2013-06-01 05:43:00,73.0,-99.9,30.05,SW,218,8.0,12.0,-999,-99.99,,,-99.99,,2013-06-01 09:43:00,
2013-06-01 05:53:00,73.0,-99.9,30.05,SW,218,9.0,14.0,-999,-99.99,,,-99.99,,2013-06-01 09:53:00,
2013-06-01 06:02:00,73.0,-99.9,30.05,SW,224,7.0,11.0,-999,-99.99,,,-99.99,,2013-06-01 10:02:00,
2013-06-01 06:13:00,73.0,-99.9,30.05,SW,221,8.0,11.0,-999,-99.99,,,-99.99,,2013-06-01 10:13:00,
2013-06-01 06:22:00,73.0,-99.9,30.05,SSW,213,8.0,13.0,-999,-99.99,,,-99.99,,2013-06-01 10:22:00,
2013-06-01 06:33:00,73.0,-99.9,30.05,SW,217,9.0,13.0,-999,-99.99,,,-99.99,,2013-06-01 10:33:00,
2013-06-01 06:42:00,73.0,-99.9,30.04,SW,214,9.0,14.0,-999,-99.99,,,-99.99,,2013-06-01 10:42:00,
2013-06-01 06:53:00,73.0,-99.9,30.05,SW,225,10.0,17.0,-999,-99.99,,,-99.99,,2013-06-01 10:53:00,
2013-06-01 07:03:00,73.0,-99.9,30.05,SW,222,9.0,13.0,-999,-99.99,,,-99.99,,2013-06-01 11:03:00,
2013-06-01 07:11:00,74.0,-99.9,30.05,SW,223,6.0,11.0,-999,-99.99,,,-99.99,,2013-06-01 11:11:00,
2013-06-01 07:22:00,74.0,-99.9,30.05,SW,229,8.0,13.0,-999,-99.99,,,-99.99,,2013-06-01 11:22:00,
2013-06-01 07:33:00,74.0,-99.9,30.06,SW,230,9.0,12.0,-999,-99.99,,,-99.99,,2013-06-01 11:33:00,
2013-06-01 07:42:00,74.0,-99.9,30.06,SW,228,11.0,17.0,-999,-99.99,,,-99.99,,2013-06-01 11:42:00,
2013-06-01 07:52:00,75.0,-99.9,30.06,SW,225,9.0,13.0,-999,-99.99,,,-99.99,,2013-06-01 11:52:00,
2013-06-01 08:01:00,75.0,-99.9,30.06,SW,233,10.0,16.0,-999,-99.99,,,-99.99,,2013-06-01 12:01:00,
2013-06-01 08:12:00,76.0,-99.9,30.06,SW,226,10.0,17.0,-999,-99.99,,,-99.99,,2013-06-01 12:12:00,
2013-06-01 08:22:00,76.0,-99.9,30.06,SW,231,9.0,17.0,-999,-99.99,,,-99.99,,2013-06-01 12:22:00,
2013-06-01 08:32:00,77.0,-99.9,30.06,WSW,246,6.0,16.0,-999,-99.99,,,-99.99,,2013-06-01 12:32:00,
2013-06-01 08:42:00,77.0,-99.9,30.06,WSW,239,11.0,18.0,-999,-99.99,,,-99.99,,2013-06-01 12:42:00,
2013-06-01 08:52:00,77.0,-99.9,30.06,WSW,245,7.0,12.0,-999,-99.99,,,-99.99,,2013-06-01 12:52:00,
2013-06-01 09:01:00,78.0,-99.9,30.06,WSW,251,12.0,20.0,-999,-99.99,,,-99.99,,2013-06-01 13:01:00,
2013-06-01 09:12:00,78.0,-99.9,30.06,WSW,238,12.0,19.0,-999,-99.99,,,-99.99,,2013-06-01 13:12:00,
2013-06-01 09:22:00,79.0,-99.9,30.05,SW,233,4.0,8.0,-999,-99.99,,,-99.99,,2013-06-01 13:22:00,
2013-06-01 09:32:00,80.0,-99.9,30.05,SW,225,8.0,15.0,-999,-99.99,,,-99.99,,2013-06-01 13:32:00,
2013-06-01 09:42:00,81.0,-99.9,30.05,SW,232,6.0,13.0,-999,-99.99,,,-99.99,,2013-06-01 13:42:00,
2013-06-01 09:52:00,81.0,-99.9,30.05,WSW,253,12.0,17.0,-999,-99.99,,,-99.99,,2013-06-01 13:52:00,
2013-06-01 10:02:00,81.0,-99.9,30.05,WSW,257,13.0,19.0,-999,-99.99,,,-99.99,,2013-06-01 14:02:00,
2013-06-01 10:11:00,82.0,-99.9,30.04,WSW,243,8.0,15.0,-999,-99.99,,,-99.99,,2013-06-01 14:11:00,
2013-06-01 10:22:00,82.0,-99.9,30.04,WSW,247,13.0,18.0,-999,-99.99,,,-99.99,,2013-06-01 14:22:00,
2013-06-01 10:32:00,83.0,-99.9,30.04,SW,216,3.0,11.0,-999,-99.99,,,-99.99,,2013-06-01 14:32:00,
2013-06-01 10:42:00,83.0,-99.9,30.03,SW,222,6.0,13.0,-999,-99.99,,,-99.99,,2013-06-01 14:42:00,
2013-06-01 10:52:00,83.0,-99.9,30.03,WSW,251,13.0,21.0,-999,-99.99,,,-99.99,,2013-06-01 14:52:00,
2013-06-01 11:02:00,84.0,-99.9,30.03,SW,227,9.0,15.0,-999,-99.99,,,-99.99,,2013-06-01 15:02:00,
2013-06-01 11:11:00,83.0,-99.9,30.03,WSW,256,15.0,21.0,-999,-99.99,,,-99.99,,2013-06-01 15:11:00,
2013-06-01 11:22:00,85.0,-99.9,30.03,SW,228,12.0,19.0,-999,-99.99,,,-99.99,,2013-06-01 15:22:00,
2013-06-01 11:33:00,85.0,-99.9,30.03,WSW,241,12.0,18.0,-999,-99.99,,,-99.99,,2013-06-01 15:33:00,
2013-06-01 11:43:00,85.0,-99.9,30.03,SW,232,7.0,14.0,-999,-99.99,,,-99.99,,2013-06-01 15:43:00,
2013-06-01 11:54:00,86.0,-99.9,30.02,SW,221,15.0,23.0,-999,-99.99,,,-99.99,,2013-06-01 15:54:00,
2013-06-01 12:03:00,86.0,-99.9,30.02,SW,234,13.0,23.0,-999,-99.99,,,-99.99,,2013-06-01 16:03:00,
2013-06-01 12:13:00,86.0,-99.9,30.02,WSW,238,13.0,19.0,-999,-99.99,,,-99.99,,2013-06-01 16:13:00,
2013-06-01 12:23:00,87.0,-99.9,30.02,WSW,250,16.0,25.0,-999,-99.99,,,-99.99,,2013-06-01 16:23:00,
2013-06-01 12:33:00,87.0,-99.9,30.02,WSW,250,16.0,24.0,-999,-99.99,,,-99.99,,2013-06-01 16:33:00,
2013-06-01 12:43:00,86.0,-99.9,30.02,SW,233,13.0,23.0,-999,-99.99,,,-99.99,,2013-06-01 16:43:00,
2013-06-01 12:53:00,87.0,-99.9,30.01,WSW,254,12.0,18.0,-999,-99.99,,,-99.99,,2013-06-01 16:53:00,
2013-06-01 13:02:00,87.0,-99.9,30.01,SW,230,9.0,16.0,-999,-99.99,,,-99.99,,2013-06-01 17:02:00,
2013-06-01 13:12:00,87.0,-99.9,30.01,WSW,256,17.0,26.0,-999,-99.99,,,-99.99,,2013-06-01 17:12:00,
2013-06-01 13:22:00,87.0,-99.9,30.01,WSW,245,14.0,19.0,-999,-99.99,,,-99.99,,2013-06-01 17:22:00,
2013-06-01 13:32:00,87.0,-99.9,30.01,WSW,239,15.0,22.0,-999,-99.99,,,-99.99,,2013-06-01 17:32:00,
2013-06-01 13:43:00,88.0,-99.9,30.01,WSW,249,16.0,22.0,-999,-99.99,,,-99.99,,2013-06-01 17:43:00,
2013-06-01 13:52:00,87.0,-99.9,30.00,WSW,257,14.0,22.0,-999,-99.99,,,-99.99,,2013-06-01 17:52:00,
2013-06-01 14:02:00,88.0,-99.9,30.00,WSW,242,14.0,24.0,-999,-99.99,,,-99.99,,2013-06-01 18:02:00,
2013-06-01 14:12:00,89.0,-99.9,30.00,SW,216,7.0,15.0,-999,-99.99,,,-99.99,,2013-06-01 18:12:00,
2013-06-01 14:22:00,88.0,-99.9,30.00,SW,223,10.0,25.0,-999,-99.99,,,-99.99,,2013-06-01 18:22:00,
2013-06-01 14:32:00,88.0,-99.9,30.00,WSW,241,13.0,17.0,-999,-99.99,,,-99.99,,2013-06-01 18:32:00,
2013-06-01 14:42:00,88.0,-99.9,29.99,WSW,243,16.0,22.0,-999,-99.99,,,-99.99,,2013-06-01 18:42:00,
2013-06-01 14:52:00,89.0,-99.9,29.98,WSW,246,17.0,22.0,-999,-99.99,,,-99.99,,2013-06-01 18:52:00,
2013-06-01 15:02:00,89.0,-99.9,29.98,SW,232,8.0,18.0,-999,-99.99,,,-99.99,,2013-06-01 19:02:00,
2013-06-01 15:12:00,89.0,-99.9,29.98,SW,223,9.0,15.0,-999,-99.99,,,-99.99,,2013-06-01 19:12:00,
2013-06-01 15:22:00,89.0,-99.9,29.97,SSW,206,11.0,23.0,-999,-99.99,,,-99.99,,2013-06-01 19:22:00,
2013-06-01 15:32:00,89.0,-99.9,29.97,SW,232,15.0,23.0,-999,-99.99,,,-99.99,,2013-06-01 19:32:00,
2013-06-01 15:42:00,89.0,-99.9,29.97,WSW,238,15.0,24.0,-999,-99.99,,,-99.99,,2013-06-01 19:42:00,
2013-06-01 15:53:00,89.0,-99.9,29.96,SW,229,15.0,24.0,-999,-99.99,,,-99.99,,2013-06-01 19:53:00,
2013-06-01 16:02:00,89.0,-99.9,29.96,WSW,237,13.0,23.0,-999,-99.99,,,-99.99,,2013-06-01 20:02:00,
2013-06-01 16:12:00,89.0,-99.9,29.96,WSW,243,13.0,19.0,-999,-99.99,,,-99.99,,2013-06-01 20:12:00,
2013-06-01 16:22:00,89.0,-99.9,29.96,WSW,245,11.0,21.0,-999,-99.99,,,-99.99,,2013-06-01 20:22:00,
2013-06-01 16:32:00,89.0,-99.9,29.96,SW,217,13.0,19.0,-999,-99.99,,,-99.99,,2013-06-01 20:32:00,
2013-06-01 16:42:00,90.0,-99.9,29.96,WSW,251,7.0,13.0,-999,-99.99,,,-99.99,,2013-06-01 20:42:00,
2013-06-01 16:52:00,89.0,-99.9,29.96,SW,227,10.0,18.0,-999,-99.99,,,-99.99,,2013-06-01 20:52:00,
2013-06-01 17:02:00,89.0,-99.9,29.96,SW,225,12.0,19.0,-999,-99.99,,,-99.99,,2013-06-01 21:02:00,
2013-06-01 17:12:00,89.0,-99.9,29.96,WSW,247,12.0,18.0,-999,-99.99,,,-99.99,,2013-06-01 21:12:00,
2013-06-01 17:22:00,89.0,-99.9,29.96,SW,233,14.0,21.0,-999,-99.99,,,-99.99,,2013-06-01 21:22:00,
2013-06-01 17:33:00,89.0,-99.9,29.96,SW,220,8.0,16.0,-999,-99.99,,,-99.99,,2013-06-01 21:33:00,
2013-06-01 17:43:00,88.0,-99.9,29.96,WSW,238,12.0,17.0,-999,-99.99,,,-99.99,,2013-06-01 21:43:00,
2013-06-01 17:54:00,89.0,-99.9,29.96,WSW,239,13.0,21.0,-999,-99.99,,,-99.99,,2013-06-01 21:54:00,
2013-06-01 18:03:00,88.0,-99.9,29.96,WSW,248,8.0,12.0,-999,-99.99,,,-99.99,,2013-06-01 22:03:00,
2013-06-01 18:12:00,88.0,-99.9,29.96,WSW,248,14.0,18.0,-999,-99.99,,,-99.99,,2013-06-01 22:12:00,
2013-06-01 18:23:00,88.0,-99.9,29.96,WSW,258,15.0,20.0,-999,-99.99,,,-99.99,,2013-06-01 22:23:00,
2013-06-01 18:33:00,86.0,-99.9,29.96,SW,227,9.0,15.0,-999,-99.99,,,-99.99,,2013-06-01 22:33:00,
2013-06-01 18:42:00,85.0,-99.9,29.96,SSW,198,10.0,18.0,-999,-99.99,,,-99.99,,2013-06-01 22:42:00,
2013-06-01 18:53:00,85.0,-99.9,29.96,South,189,8.0,18.0,-999,-99.99,,,-99.99,,2013-06-01 22:53:00,
2013-06-01 19:02:00,84.0,-99.9,29.96,South,188,12.0,19.0,-999,-99.99,,,-99.99,,2013-06-01 23:02:00,
2013-06-01 19:12:00,84.0,-99.9,29.96,SSW,194,13.0,18.0,-999,-99.99,,,-99.99,,2013-06-01 23:12:00,
2013-06-01 19:22:00,84.0,-99.9,29.96,South,188,9.0,16.0,-999,-99.99,,,-99.99,,2013-06-01 23:22:00,
2013-06-01 19:32:00,83.0,-99.9,29.95,South,181,11.0,17.0,-999,-99.99,,,-99.99,,2013-06-01 23:32:00,
2013-06-01 19:42:00,83.0,-99.9,29.95,South,190,12.0,19.0,-999,-99.99,,,-99.99,,2013-06-01 23:42:00,
2013-06-01 19:52:00,83.0,-99.9,29.95,SSW,199,8.0,15.0,-999,-99.99,,,-99.99,,2013-06-01 23:52:00,
2013-06-01 20:02:00,83.0,-99.9,29.96,SSW,201,8.0,16.0,-999,-99.99,,,-99.99,,2013-06-02 00:02:00,
2013-06-01 20:11:00,83.0,-99.9,29.96,SSW,205,6.0,12.0,-999,-99.99,,,-99.99,,2013-06-02 00:11:00,
2013-06-01 20:22:00,81.0,-99.9,29.96,South,189,9.0,14.0,-999,-99.99,,,-99.99,,2013-06-02 00:22:00,
2013-06-01 20:32:00,81.0,-99.9,29.96,South,190,10.0,13.0,-999,-99.99,,,-99.99,,2013-06-02 00:32:00,
2013-06-01 20:42:00,80.0,-99.9,29.96,SSW,197,7.0,13.0,-999,-99.99,,,-99.99,,2013-06-02 00:42:00,
2013-06-01 20:52:00,80.0,-99.9,29.96,SSW,207,8.0,15.0,-999,-99.99,,,-99.99,,2013-06-02 00:52:00,
2013-06-01 21:02:00,80.0,-99.9,29.96,SSW,202,8.0,14.0,-999,-99.99,,,-99.99,,2013-06-02 01:02:00,
2013-06-01 21:11:00,79.0,-99.9,29.96,SSW,196,6.0,9.0,-999,-99.99,,,-99.99,,2013-06-02 01:11:00,
2013-06-01 21:22:00,78.0,-99.9,29.96,SSW,196,9.0,17.0,-999,-99.99,,,-99.99,,2013-06-02 01:22:00,
2013-06-01 21:32:00,78.0,-99.9,29.96,SSW,197,10.0,17.0,-999,-99.99,,,-99.99,,2013-06-02 01:32:00,
2013-06-01 21:42:00,78.0,-99.9,29.96,SSW,196,8.0,13.0,-999,-99.99,,,-99.99,,2013-06-02 01:42:00,
2013-06-01 21:52:00,78.0,-99.9,29.96,SSW,199,8.0,11.0,-999,-99.99,,,-99.99,,2013-06-02 01:52:00,
2013-06-01 22:02:00,78.0,-99.9,29.96,SSW,202,9.0,14.0,-999,-99.99,,,-99.99,,2013-06-02 02:02:00,
2013-06-01 22:12:00,77.0,-99.9,29.96,SSW,195,10.0,14.0,-999,-99.99,,,-99.99,,2013-06-02 02:12:00,
2013-06-01 22:22:00,77.0,-99.9,29.96,SSW,201,10.0,16.0,-999,-99.99,,,-99.99,,2013-06-02 02:22:00,
2013-06-01 22:32:00,77.0,-99.9,29.96,SSW,198,9.0,15.0,-999,-99.99,,,-99.99,,2013-06-02 02:32:00,
2013-06-01 22:42:00,77.0,-99.9,29.96,SSW,201,10.0,17.0,-999,-99.99,,,-99.99,,2013-06-02 02:42:00,
2013-06-01 22:52:00,77.0,-99.9,29.96,SSW,201,7.0,12.0,-999,-99.99,,,-99.99,,2013-06-02 02:52:00,
2013-06-01 23:02:00,77.0,-99.9,29.96,SSW,210,9.0,15.0,-999,-99.99,,,-99.99,,2013-06-02 03:02:00,
2013-06-01 23:11:00,77.0,-99.9,29.96,SSW,199,6.0,11.0,-999,-99.99,,,-99.99,,2013-06-02 03:11:00,
2013-06-01 23:22:00,77.0,-99.9,29.96,SSW,201,9.0,17.0,-999,-99.99,,,-99.99,,2013-06-02 03:22:00,
2013-06-01 23:33:00,76.0,-99.9,29.96,SSW,203,6.0,10.0,-999,-99.99,,,-99.99,,2013-06-02 03:33:00,
2013-06-01 23:43:00,76.0,-99.9,29.96,SSW,209,8.0,15.0,-999,-99.99,,,-99.99,,2013-06-02 03:43:00,
2013-06-01 23:53:00,76.0,-99.9,29.96,SSW,201,10.0,17.0,-999,-99.99,,,-99.99,,2013-06-02 03:53:00,